Time;durP1;ratioP1;P1;durP2;ratioP2;P2;SDS_P1;SDS_P2;PMS_P1;PMS_P2;Temp;Humidity;BMP_temperature;BMP_pressure;BME280_temperature;BME280_humidity;BME280_pressure;Samples;Min_cycle;Max_cycle;Signal;HPM_P1;HPM_P2
2022/09/20 00:01:06;;;;;;;2.55;0.35;;;11.10;99.90;;;;;;6285858;22;20014;-92
2022/09/20 00:03:33;;;;;;;2.67;0.40;;;11.00;99.90;;;;;;6286311;22;20415;-94
2022/09/20 00:06:05;;;;;;;3.60;0.30;;;11.00;99.90;;;;;;6286280;22;20023;-94
2022/09/20 00:08:31;;;;;;;1.25;0.10;;;11.00;99.90;;;;;;6269629;22;20027;-90
2022/09/20 00:11:00;;;;;;;1.17;0.32;;;11.00;99.90;;;;;;6210158;23;20099;-90
2022/09/20 00:13:26;;;;;;;1.17;0.30;;;11.00;99.90;;;;;;6185718;23;20135;-94
2022/09/20 00:15:52;;;;;;;1.05;0.20;;;10.90;99.90;;;;;;6185155;23;20024;-90
2022/09/20 00:18:18;;;;;;;0.90;0.60;;;10.80;99.90;;;;;;6185376;23;20017;-95
2022/09/20 00:20:48;;;;;;;2.53;0.30;;;10.80;99.90;;;;;;6210365;23;20101;-96
2022/09/20 00:23:15;;;;;;;0.60;0.10;;;10.80;99.90;;;;;;6185306;23;20319;-91
2022/09/20 00:25:41;;;;;;;;;;;10.80;99.90;;;;;;6210577;23;20082;-91
2022/09/20 00:28:08;;;;;;;0.68;0.20;;;10.80;99.90;;;;;;6185066;23;19965;-95
2022/09/20 00:30:34;;;;;;;0.95;0.30;;;10.80;99.90;;;;;;6185025;23;20020;-93
2022/09/20 00:33:00;;;;;;;1.40;0.30;;;10.90;99.90;;;;;;6185078;23;20103;-94
2022/09/20 00:35:28;;;;;;;2.17;0.47;;;10.80;99.90;;;;;;6185271;23;20048;-92
2022/09/20 00:37:54;;;;;;;1.85;0.45;;;10.80;99.90;;;;;;6209897;23;20040;-89
2022/09/20 00:40:21;;;;;;;0.40;0.20;;;10.90;99.90;;;;;;6185144;23;20082;-90
2022/09/20 00:42:48;;;;;;;2.53;0.32;;;10.90;99.90;;;;;;6160594;23;20445;-89
2022/09/20 00:45:26;;;;;;;3.95;0.40;;;10.80;99.90;;;;;;6184664;23;20025;-96
2022/09/20 00:48:02;;;;;;;2.15;0.30;;;10.80;99.90;;;;;;6184891;23;20016;-90
2022/09/20 00:50:50;;;;;;;2.10;0.30;;;10.80;99.90;;;;;;6209851;23;20012;-90
2022/09/20 00:53:27;;;;;;;1.20;0.30;;;10.80;99.90;;;;;;6184618;22;20016;-93
2022/09/20 00:56:18;;;;;;;0.60;0.28;;;10.80;99.90;;;;;;6209666;23;20020;-95
2022/09/20 00:58:50;;;;;;;3.35;0.30;;;10.80;99.90;;;;;;6209136;23;20012;-90
2022/09/20 01:01:16;;;;;;;1.35;0.30;;;10.80;99.90;;;;;;6184915;23;20016;-90
2022/09/20 01:03:42;;;;;;;0.93;0.30;;;10.80;99.90;;;;;;6184518;23;20027;-91
2022/09/20 01:06:12;;;;;;;2.25;0.60;;;10.80;99.90;;;;;;6184996;23;20087;-91
2022/09/20 01:08:40;;;;;;;2.75;0.20;;;10.80;99.90;;;;;;6209926;23;20071;-93
2022/09/20 01:11:06;;;;;;;0.40;0.20;;;10.70;99.90;;;;;;6210864;23;20025;-90
2022/09/20 01:13:32;;;;;;;0.65;0.10;;;10.80;99.90;;;;;;6186349;23;20065;-93
2022/09/20 01:16:00;;;;;;;0.53;0.20;;;10.80;99.90;;;;;;6186742;23;20138;-96
2022/09/20 01:18:28;;;;;;;1.52;0.20;;;10.70;99.90;;;;;;6186997;23;20442;-96
2022/09/20 01:20:55;;;;;;;1.02;0.40;;;10.70;99.90;;;;;;6318854;22;20019;-94
2022/09/20 01:23:43;;;;;;;2.47;0.45;;;10.70;99.90;;;;;;6186729;23;20016;-92
2022/09/20 01:26:36;;;;;;;1.63;0.30;;;10.70;99.90;;;;;;6186912;23;20096;-93
2022/09/20 01:29:12;;;;;;;1.50;0.30;;;10.60;99.90;;;;;;6186857;23;20020;-90
2022/09/20 01:31:49;;;;;;;1.15;0.20;;;10.60;99.90;;;;;;6186354;23;20035;-91
2022/09/20 01:34:26;;;;;;;3.47;0.40;;;10.60;99.90;;;;;;6186500;23;20012;-96
2022/09/20 01:37:00;;;;;;;0.77;0.20;;;10.60;99.90;;;;;;6186070;23;20069;-91
2022/09/20 01:39:37;;;;;;;0.90;0.28;;;10.50;99.90;;;;;;6186057;23;20099;-91
2022/09/20 01:42:13;;;;;;;1.55;0.30;;;10.50;99.90;;;;;;6185956;23;20035;-91
2022/09/20 01:45:09;;;;;;;0.57;0.20;;;10.50;99.90;;;;;;6210939;23;20019;-94
2022/09/20 01:47:58;;;;;;;1.98;0.30;;;10.40;99.90;;;;;;6185552;23;20020;-92
2022/09/20 01:50:33;;;;;;;3.97;0.60;;;10.40;99.90;;;;;;6185916;23;20166;-95
2022/09/20 01:53:10;;;;;;;3.17;0.77;;;10.30;99.90;;;;;;6186033;23;20017;-92
2022/09/20 01:56:10;;;;;;;2.05;0.35;;;10.30;99.90;;;;;;6186226;23;20008;-93
2022/09/20 01:58:57;;;;;;;2.85;0.47;;;10.20;99.90;;;;;;6185617;23;20017;-93
2022/09/20 02:01:32;;;;;;;1.90;0.40;;;10.20;99.90;;;;;;6186052;23;20434;-91
2022/09/20 02:04:36;;;;;;;1.85;0.30;;;10.20;99.90;;;;;;6185842;23;20017;-93
2022/09/20 02:07:39;;;;;;;1.92;0.32;;;10.10;99.90;;;;;;6096464;23;20101;-91
2022/09/20 02:10:31;;;;;;;2.33;0.50;;;10.10;99.90;;;;;;6185912;23;20099;-95
2022/09/20 02:13:09;;;;;;;1.67;0.30;;;10.10;99.90;;;;;;6185810;23;20017;-95
2022/09/20 02:16:09;;;;;;;0.65;0.30;;;10.00;99.90;;;;;;6185900;23;20023;-94
2022/09/20 02:18:53;;;;;;;1.48;0.38;;;10.00;99.90;;;;;;6185887;23;20103;-93
2022/09/20 02:21:28;;;;;;;0.63;0.40;;;9.90;99.90;;;;;;6210773;23;20350;-94
2022/09/20 02:24:12;;;;;;;1.27;0.30;;;9.90;99.90;;;;;;6185374;23;20066;-93
2022/09/20 02:27:00;;;;;;;1.23;0.40;;;9.90;99.90;;;;;;6185875;23;20069;-91
2022/09/20 02:29:57;;;;;;;3.75;0.40;;;9.90;99.90;;;;;;6185906;23;20087;-95
2022/09/20 02:32:41;;;;;;;1.65;0.28;;;9.90;99.90;;;;;;6185996;23;20020;-91
2022/09/20 02:35:22;;;;;;;1.23;0.30;;;9.90;99.90;;;;;;6210757;23;20013;-91
2022/09/20 02:37:58;;;;;;;3.38;0.40;;;9.90;99.90;;;;;;6185987;23;20437;-91
2022/09/20 02:40:54;;;;;;;1.63;0.40;;;9.90;99.90;;;;;;6185744;23;20042;-90
2022/09/20 02:43:57;;;;;;;2.03;0.40;;;9.80;99.90;;;;;;6185834;23;20021;-94
2022/09/20 02:46:25;;;;;;;2.95;0.60;;;9.80;99.90;;;;;;6210833;23;20012;-91
2022/09/20 02:49:22;;;;;;;2.90;0.30;;;9.80;99.90;;;;;;6185820;23;20375;-90
2022/09/20 02:52:04;;;;;;;2.83;0.43;;;9.80;99.90;;;;;;6185510;23;20101;-91
2022/09/20 02:54:36;;;;;;;1.25;0.40;;;9.70;99.90;;;;;;6186050;23;20099;-91
2022/09/20 02:57:14;;;;;;;1.40;0.32;;;9.70;99.90;;;;;;6185632;23;20437;-90
2022/09/20 02:59:59;;;;;;;1.67;0.40;;;9.70;99.90;;;;;;6186055;23;20017;-92
2022/09/20 03:02:39;;;;;;;2.00;0.45;;;9.70;99.90;;;;;;6185736;23;20012;-94
2022/09/20 03:05:37;;;;;;;0.80;0.30;;;9.70;99.90;;;;;;6210537;23;20023;-90
2022/09/20 03:08:22;;;;;;;;;;;9.70;99.90;;;;;;6122206;23;20017;-90
2022/09/20 03:10:58;;;;;;;1.05;0.22;;;9.70;99.90;;;;;;6185919;23;20253;-90
2022/09/20 03:13:52;;;;;;;1.23;0.30;;;9.70;99.90;;;;;;6186002;23;20093;-90
2022/09/20 03:16:29;;;;;;;1.02;0.30;;;9.60;99.90;;;;;;6185898;23;20380;-90
2022/09/20 03:19:42;;;;;;;2.72;0.30;;;9.50;99.90;;;;;;6186067;23;20020;-92
2022/09/20 03:22:25;;;;;;;0.40;0.30;;;9.40;99.90;;;;;;6140690;23;20020;-90
2022/09/20 03:25:09;;;;;;;3.67;0.40;;;9.20;99.90;;;;;;6185694;23;20097;-90
2022/09/20 03:27:55;;;;;;;6.03;0.47;;;9.20;99.90;;;;;;6185654;23;20016;-95
2022/09/20 03:30:43;;;;;;;1.55;0.38;;;9.20;99.90;;;;;;6185428;23;20048;-89
2022/09/20 03:33:20;;;;;;;;;;;9.20;99.90;;;;;;6186117;23;20024;-90
2022/09/20 03:35:55;;;;;;;0.95;0.40;;;9.20;99.90;;;;;;6185710;23;19991;-95
2022/09/20 03:38:30;;;;;;;2.47;0.40;;;9.20;99.90;;;;;;6185730;23;20016;-96
2022/09/20 03:41:33;;;;;;;1.02;0.30;;;9.20;99.90;;;;;;6185932;23;20453;-91
2022/09/20 03:44:14;;;;;;;1.17;0.35;;;9.20;99.90;;;;;;6185478;23;20345;-90
2022/09/20 03:46:47;;;;;;;2.53;0.38;;;9.20;99.90;;;;;;6186677;23;20581;-92
2022/09/20 03:49:49;;;;;;;0.77;0.28;;;9.20;99.90;;;;;;6161293;23;20020;-94
2022/09/20 03:52:55;;;;;;;1.15;0.50;;;9.20;99.90;;;;;;6185506;23;20017;-92
2022/09/20 03:55:37;;;;;;;1.27;0.30;;;9.20;99.90;;;;;;6185302;23;20016;-91
2022/09/20 03:58:11;;;;;;;2.42;0.35;;;9.20;99.90;;;;;;6185609;23;20092;-89
2022/09/20 04:00:44;;;;;;;1.27;0.43;;;9.10;99.90;;;;;;6185426;23;20020;-90
2022/09/20 04:03:27;;;;;;;1.65;0.32;;;9.00;99.90;;;;;;6185323;23;20025;-91
2022/09/20 04:06:11;;;;;;;0.55;0.30;;;9.00;99.90;;;;;;6185275;23;20091;-92
2022/09/20 04:08:42;;;;;;;0.98;0.40;;;8.90;99.90;;;;;;6185359;23;20031;-92
2022/09/20 04:11:14;;;;;;;1.52;0.50;;;8.90;99.90;;;;;;6186274;23;20323;-94
2022/09/20 04:14:11;;;;;;;0.50;0.30;;;8.90;99.90;;;;;;6215407;23;20013;-91
2022/09/20 04:17:10;;;;;;;2.22;0.40;;;8.90;99.90;;;;;;6179810;23;20070;-91
2022/09/20 04:19:44;;;;;;;;;;;8.90;99.90;;;;;;6213481;23;20017;-95
2022/09/20 04:22:10;;;;;;;0.95;0.40;;;8.90;99.90;;;;;;6186308;23;19920;-92
2022/09/20 04:25:12;;;;;;;0.85;0.40;;;8.90;99.90;;;;;;6163627;23;20021;-96
2022/09/20 04:27:45;;;;;;;0.88;0.22;;;8.80;99.90;;;;;;6187994;23;20464;-93
2022/09/20 04:30:21;;;;;;;0.38;0.30;;;8.80;99.90;;;;;;6192261;23;20021;-91
2022/09/20 04:32:59;;;;;;;2.78;0.50;;;8.80;99.90;;;;;;6214727;23;20020;-90
2022/09/20 04:38:35;;;;;;;0.50;0.22;;;8.70;99.90;;;;;;6211532;22;20021;-89
2022/09/20 04:41:49;;;;;;;1.60;0.60;;;8.70;99.90;;;;;;6161508;22;20020;-90
2022/09/20 04:44:21;;;;;;;1.05;0.40;;;8.70;99.90;;;;;;6166909;23;20021;-94
2022/09/20 04:47:27;;;;;;;2.58;0.50;;;8.60;99.90;;;;;;6213774;23;20153;-89
2022/09/20 04:50:11;;;;;;;1.92;0.40;;;8.60;99.90;;;;;;6211474;23;20051;-91
2022/09/20 04:53:31;;;;;;;1.60;0.40;;;8.60;99.90;;;;;;6213582;23;20021;-89
2022/09/20 04:56:23;;;;;;;2.15;0.32;;;8.60;99.90;;;;;;6126564;23;20016;-86
2022/09/20 04:59:04;;;;;;;0.85;0.30;;;8.60;99.90;;;;;;6193366;23;20518;-92
2022/09/20 05:08:54;;;;;;;1.25;0.40;;;8.60;99.90;;;;;;6209283;22;20023;-86
2022/09/20 05:11:41;;;;;;;1.58;0.30;;;8.60;99.90;;;;;;6209746;23;20049;-85
2022/09/20 05:14:29;;;;;;;0.75;0.38;;;8.70;99.90;;;;;;6185920;23;20028;-85
2022/09/20 05:17:05;;;;;;;0.82;0.22;;;8.80;99.90;;;;;;6188023;23;20017;-86
2022/09/20 05:19:43;;;;;;;2.33;0.40;;;8.90;99.90;;;;;;6188919;23;20024;-87
2022/09/20 05:22:39;;;;;;;0.90;0.40;;;8.90;99.90;;;;;;6185525;23;20491;-90
2022/09/20 05:25:38;;;;;;;1.60;0.17;;;8.90;99.90;;;;;;6184830;23;20111;-88
2022/09/20 05:28:26;;;;;;;0.85;0.47;;;9.00;99.90;;;;;;6183560;23;20013;-86
2022/09/20 05:30:57;;;;;;;0.65;0.45;;;9.00;99.90;;;;;;6208619;23;20323;-86
2022/09/20 05:33:43;;;;;;;0.95;0.30;;;9.00;99.90;;;;;;6210388;23;20044;-88
2022/09/20 05:36:19;;;;;;;0.80;0.40;;;9.00;99.90;;;;;;6184964;23;20065;-85
2022/09/20 05:39:00;;;;;;;1.75;0.40;;;9.10;99.90;;;;;;6209956;23;20337;-88
2022/09/20 05:41:42;;;;;;;0.60;0.30;;;9.10;99.90;;;;;;6208408;23;20438;-86
2022/09/20 05:44:49;;;;;;;2.40;0.38;;;9.20;99.90;;;;;;6185248;23;20021;-86
2022/09/20 05:47:36;;;;;;;1.85;0.47;;;9.30;99.90;;;;;;6317170;22;20031;-88
2022/09/20 05:50:15;;;;;;;2.25;0.32;;;9.40;99.90;;;;;;6210206;23;20017;-86
2022/09/20 05:52:57;;;;;;;3.53;0.50;;;9.50;99.90;;;;;;6210406;23;20071;-88
2022/09/20 05:55:48;;;;;;;2.20;0.55;;;9.50;99.90;;;;;;6186427;23;20016;-88
2022/09/20 05:58:31;;;;;;;1.90;0.50;;;9.60;99.90;;;;;;6209671;23;20020;-86
2022/09/20 06:01:08;;;;;;;2.17;0.57;;;9.70;99.90;;;;;;6210299;23;20020;-88
2022/09/20 06:03:54;;;;;;;2.03;0.40;;;9.70;99.90;;;;;;6185226;23;20092;-86
2022/09/20 06:06:44;;;;;;;0.45;0.20;;;9.80;99.90;;;;;;6209419;23;20028;-89
2022/09/20 06:09:34;;;;;;;1.55;0.30;;;9.80;99.90;;;;;;6208832;23;20013;-84
2022/09/20 06:12:17;;;;;;;1.05;0.30;;;9.80;99.90;;;;;;6211952;23;20029;-85
2022/09/20 06:15:01;;;;;;;1.38;0.30;;;9.90;99.90;;;;;;6211787;23;20029;-89
2022/09/20 06:17:33;;;;;;;3.08;0.60;;;9.90;99.90;;;;;;6211651;23;20020;-86
2022/09/20 06:20:38;;;;;;;1.80;0.50;;;10.00;99.90;;;;;;6210435;23;20069;-86
2022/09/20 06:23:05;;;;;;;1.55;0.50;;;10.10;99.90;;;;;;6210590;23;20020;-87
2022/09/20 06:25:54;;;;;;;2.20;0.40;;;10.20;99.90;;;;;;6184902;23;20021;-86
2022/09/20 06:28:31;;;;;;;1.58;0.30;;;10.30;99.90;;;;;;6210951;23;20103;-87
2022/09/20 06:30:57;;;;;;;1.50;0.40;;;10.30;99.90;;;;;;6185602;23;20056;-86
2022/09/20 06:33:24;;;;;;;0.50;0.20;;;10.30;99.90;;;;;;6160640;23;20016;-86
2022/09/20 06:41:25;;;;;;;1.23;0.40;;;10.40;99.90;;;;;;6186441;23;20266;-88
2022/09/20 06:42:28;;;;;;;1.02;0.30;;;10.40;99.90;;;;;;6209806;22;20085;-91
2022/09/20 06:44:54;;;;;;;3.22;0.30;;;10.40;99.90;;;;;;6161197;23;20024;-90
2022/09/20 06:47:40;;;;;;;0.40;0.25;;;10.40;99.90;;;;;;6185958;23;20062;-90
2022/09/20 06:50:25;;;;;;;1.98;0.30;;;10.50;99.90;;;;;;6164621;23;20023;-89
2022/09/20 06:52:52;;;;;;;0.55;0.20;;;10.40;99.90;;;;;;6211233;23;20013;-90
2022/09/20 06:55:26;;;;;;;1.48;0.40;;;10.50;99.90;;;;;;6185754;23;20017;-92
2022/09/20 06:57:52;;;;;;;0.52;0.20;;;10.50;99.90;;;;;;6186024;23;20512;-90
2022/09/20 07:00:18;;;;;;;3.33;0.50;;;10.50;99.90;;;;;;6161451;23;20017;-90
2022/09/20 07:02:47;;;;;;;2.30;0.40;;;10.50;99.90;;;;;;6185572;23;20024;-90
2022/09/20 07:05:15;;;;;;;1.38;0.35;;;10.60;99.90;;;;;;6135002;23;20395;-90
2022/09/20 07:07:42;;;;;;;0.57;0.28;;;10.70;99.90;;;;;;6189260;22;20113;-90
2022/09/20 07:10:13;;;;;;;0.57;0.20;;;10.70;99.90;;;;;;6235363;22;20111;-92
2022/09/20 07:12:47;;;;;;;1.60;0.63;;;10.70;99.90;;;;;;6285371;22;20091;-91
2022/09/20 07:15:13;;;;;;;1.08;0.15;;;10.80;99.90;;;;;;6288602;22;20014;-92
2022/09/20 07:17:47;;;;;;;0.55;0.30;;;10.80;99.90;;;;;;6302225;22;20181;-91
2022/09/20 07:20:13;;;;;;;0.70;0.20;;;10.90;99.90;;;;;;6299527;22;20015;-91
2022/09/20 07:22:40;;;;;;;1.27;0.20;;;10.90;99.90;;;;;;6286824;22;20033;-92
2022/09/20 07:25:06;;;;;;;0.50;0.20;;;10.90;99.90;;;;;;6261158;22;20019;-90
2022/09/20 07:27:32;;;;;;;2.10;0.20;;;10.90;99.90;;;;;;6286443;22;20011;-91
2022/09/20 07:30:01;;;;;;;0.20;0.20;;;11.00;99.90;;;;;;6286384;22;20018;-91
2022/09/20 07:32:27;;;;;;;0.98;0.20;;;11.00;99.90;;;;;;6286308;22;20096;-91
2022/09/20 07:34:53;;;;;;;1.55;0.40;;;11.10;99.90;;;;;;6260749;22;20061;-91
2022/09/20 07:37:21;;;;;;;0.63;0.40;;;11.10;99.90;;;;;;6286178;22;20452;-91
2022/09/20 07:39:47;;;;;;;0.68;0.13;;;11.10;99.90;;;;;;6283947;22;20512;-91
2022/09/20 07:42:13;;;;;;;0.30;0.10;;;11.20;99.90;;;;;;6285048;22;20015;-91
2022/09/20 07:44:46;;;;;;;1.57;0.20;;;11.30;99.90;;;;;;6233226;22;20322;-91
2022/09/20 07:47:13;;;;;;;0.20;0.10;;;11.40;99.90;;;;;;6258538;22;20010;-91
2022/09/20 07:49:39;;;;;;;2.20;0.13;;;11.40;99.90;;;;;;6259979;22;20504;-91
2022/09/20 07:52:10;;;;;;;2.80;0.20;;;11.50;99.90;;;;;;6260781;22;20046;-92
2022/09/20 07:54:38;;;;;;;1.38;0.52;;;11.50;99.90;;;;;;6285987;22;20046;-91
2022/09/20 07:57:04;;;;;;;1.45;0.43;;;11.60;99.90;;;;;;6284408;22;20019;-91
2022/09/20 07:59:39;;;;;;;1.67;0.40;;;11.70;99.90;;;;;;6260836;22;20060;-91
2022/09/20 08:02:05;;;;;;;1.23;0.30;;;11.70;99.90;;;;;;6286496;22;20253;-92
2022/09/20 08:04:44;;;;;;;1.08;0.30;;;11.80;99.90;;;;;;6260630;22;20018;-91
2022/09/20 08:08:22;;;;;;;1.45;0.13;;;11.90;99.90;;;;;;6286164;22;20114;-92
2022/09/20 08:22:23;;;;;;;2.83;0.20;;;12.50;99.90;;;;;;6279151;22;20023;-90
2022/09/20 08:24:50;;;;;;;2.97;0.93;;;12.60;99.90;;;;;;6262818;22;20023;-91
2022/09/20 08:27:16;;;;;;;0.75;0.10;;;12.60;99.90;;;;;;6262882;22;20015;-89
2022/09/20 08:29:42;;;;;;;0.47;0.20;;;12.70;99.90;;;;;;6288140;22;20021;-91
2022/09/20 08:32:09;;;;;;;1.57;0.20;;;12.70;99.90;;;;;;6288088;22;20097;-90
2022/09/20 08:34:34;;;;;;;;;;;12.80;99.90;;;;;;6263276;22;20015;-90
2022/09/20 08:37:00;;;;;;;0.75;0.10;;;12.80;99.90;;;;;;6287973;22;19929;-91
2022/09/20 08:39:26;;;;;;;2.73;0.20;;;12.90;99.90;;;;;;6263060;22;20019;-91
2022/09/20 08:42:01;;;;;;;3.17;0.30;;;13.00;99.90;;;;;;6288537;22;20034;-91
2022/09/20 08:44:32;;;;;;;0.73;0.20;;;13.00;99.90;;;;;;6287934;22;20309;-90
2022/09/20 08:47:16;;;;;;;0.70;0.20;;;13.10;99.90;;;;;;6288273;22;20022;-90
2022/09/20 08:49:43;;;;;;;0.10;0.10;;;13.10;99.90;;;;;;6288194;22;20053;-89
2022/09/20 08:52:17;;;;;;;0.50;0.10;;;13.20;99.90;;;;;;6288041;22;20011;-91
2022/09/20 08:54:43;;;;;;;1.85;0.30;;;13.20;99.90;;;;;;6287801;22;20240;-91
2022/09/20 08:57:13;;;;;;;1.77;0.20;;;13.10;99.90;;;;;;6288309;22;20435;-91
2022/09/20 08:59:39;;;;;;;1.45;0.10;;;13.10;99.90;;;;;;6287940;22;20011;-92
2022/09/20 09:02:25;;;;;;;0.60;0.13;;;13.10;99.90;;;;;;6287808;22;20017;-91
2022/09/20 09:05:13;;;;;;;0.68;0.10;;;13.10;99.90;;;;;;6287611;22;20018;-92
2022/09/20 09:07:39;;;;;;;1.20;0.20;;;13.20;99.90;;;;;;6284455;22;20023;-92
2022/09/20 09:10:06;;;;;;;0.77;0.20;;;13.30;99.90;;;;;;6287983;22;20014;-91
2022/09/20 09:12:33;;;;;;;;;;;13.50;99.90;;;;;;6262787;22;20015;-91
2022/09/20 09:15:12;;;;;;;1.20;0.20;;;13.50;99.90;;;;;;6287928;22;19946;-91
2022/09/20 09:17:37;;;;;;;0.60;0.20;;;13.60;99.90;;;;;;6288733;22;20249;-91
2022/09/20 09:20:20;;;;;;;0.43;0.13;;;13.60;99.90;;;;;;6310328;22;20022;-88
2022/09/20 09:22:47;;;;;;;3.60;0.40;;;13.60;99.90;;;;;;6203259;22;20072;-91
2022/09/20 09:25:15;;;;;;;1.60;0.17;;;13.70;99.90;;;;;;6137343;23;20020;-91
2022/09/20 09:28:06;;;;;;;3.03;0.30;;;13.80;99.90;;;;;;6161607;23;20334;-92
2022/09/20 09:30:46;;;;;;;1.35;0.20;;;14.00;99.90;;;;;;6161608;23;20077;-91
2022/09/20 09:33:45;;;;;;;0.98;0.20;;;14.00;99.90;;;;;;6161310;23;20017;-91
2022/09/20 09:36:44;;;;;;;2.55;0.20;;;14.10;99.90;;;;;;6159878;23;20077;-91
2022/09/20 09:39:25;;;;;;;1.20;0.10;;;14.00;99.90;;;;;;6139062;23;20026;-91
2022/09/20 09:41:59;;;;;;;0.73;0.10;;;14.00;99.90;;;;;;6161134;23;20021;-90
2022/09/20 09:44:32;;;;;;;0.75;0.17;;;14.00;99.90;;;;;;6161140;23;20027;-90
2022/09/20 09:46:59;;;;;;;0.68;0.20;;;14.00;99.90;;;;;;6161223;23;20017;-90
2022/09/20 09:49:44;;;;;;;;;;;;;;;;;;;;;
2022/09/20 09:52:25;;;;;;;0.20;0.10;;;14.00;99.90;;;;;;6185989;23;19947;-91
2022/09/20 09:54:58;;;;;;;0.70;0.20;;;14.00;99.90;;;;;;6143036;23;20012;-91
2022/09/20 09:57:52;;;;;;;0.75;0.20;;;14.00;99.90;;;;;;6166221;23;20017;-91
2022/09/20 10:00:20;;;;;;;0.65;0.10;;;14.10;99.90;;;;;;6160906;22;20020;-91
2022/09/20 10:03:21;;;;;;;1.35;0.10;;;14.10;99.90;;;;;;6160922;23;20020;-91
2022/09/20 10:06:03;;;;;;;2.92;0.20;;;14.10;99.90;;;;;;6161172;23;20073;-90
2022/09/20 10:08:47;;;;;;;1.85;0.20;;;14.20;99.90;;;;;;6161151;23;20013;-91
2022/09/20 10:11:57;;;;;;;0.63;0.20;;;14.20;99.90;;;;;;6161265;23;20048;-91
2022/09/20 10:14:41;;;;;;;0.35;0.10;;;14.30;99.90;;;;;;6160508;23;20017;-92
2022/09/20 10:18:08;;;;;;;1.17;0.20;;;14.40;99.90;;;;;;6161241;23;20020;-90
2022/09/20 10:21:01;;;;;;;0.70;0.20;;;14.50;99.90;;;;;;6164850;23;20481;-91
2022/09/20 10:23:31;;;;;;;1.95;0.20;;;14.60;99.90;;;;;;6164608;23;20553;-91
2022/09/20 10:26:21;;;;;;;0.90;0.30;;;14.60;99.90;;;;;;6161899;23;20023;-90
2022/09/20 10:29:07;;;;;;;0.38;0.10;;;14.70;99.90;;;;;;6160701;23;20100;-91
2022/09/20 10:31:46;;;;;;;1.00;0.20;;;14.70;99.90;;;;;;6159623;23;20044;-92
2022/09/20 10:34:39;;;;;;;1.05;0.20;;;14.80;99.90;;;;;;6161256;23;20023;-92
2022/09/20 10:37:21;;;;;;;1.38;0.30;;;14.80;99.90;;;;;;6162213;22;20023;-92
2022/09/20 10:40:00;;;;;;;1.77;0.20;;;14.80;99.90;;;;;;6161075;23;20093;-92
2022/09/20 10:45:55;;;;;;;1.95;0.20;;;14.80;99.90;;;;;;6185787;23;20497;-91
2022/09/20 10:48:20;;;;;;;1.83;0.20;;;14.80;99.90;;;;;;6161307;23;20091;-91
2022/09/20 10:51:13;;;;;;;1.03;0.27;;;14.70;99.90;;;;;;6186091;23;20062;-90
2022/09/20 10:53:50;;;;;;;2.72;0.25;;;14.80;99.90;;;;;;6161111;23;20093;-91
2022/09/20 10:56:32;;;;;;;1.52;0.32;;;14.80;99.90;;;;;;6161598;22;20016;-91
2022/09/20 10:59:06;;;;;;;3.03;0.45;;;14.80;99.90;;;;;;6161974;22;20480;-92
2022/09/20 11:02:46;;;;;;;1.95;0.20;;;14.80;99.90;;;;;;6161132;23;20096;-90
2022/09/20 11:05:45;;;;;;;2.07;0.20;;;14.80;99.90;;;;;;6100184;23;20355;-90
2022/09/20 11:08:43;;;;;;;1.35;0.13;;;14.70;99.90;;;;;;6164231;23;20013;-90
2022/09/20 11:11:12;;;;;;;1.25;0.20;;;14.70;99.90;;;;;;6135127;23;20526;-91
2022/09/20 11:15:18;;;;;;;3.90;0.63;;;14.70;99.90;;;;;;6161135;23;20062;-91
2022/09/20 11:17:43;;;;;;;3.22;0.75;;;14.80;99.90;;;;;;6185047;23;20398;-91
2022/09/20 11:21:10;;;;;;;1.42;0.32;;;15.10;99.90;;;;;;6162134;22;20017;-91
2022/09/20 11:23:48;;;;;;;1.65;0.45;;;15.40;99.90;;;;;;6180575;23;20068;-90
2022/09/20 11:26:51;;;;;;;1.17;0.20;;;15.60;99.90;;;;;;6186735;23;20024;-91
2022/09/20 11:33:33;;;;;;;1.15;0.10;;;15.90;99.90;;;;;;6177324;23;20099;-90
2022/09/20 11:36:26;;;;;;;0.35;0.20;;;16.20;99.90;;;;;;6160927;23;20016;-91
2022/09/20 11:38:57;;;;;;;1.95;0.40;;;16.20;99.90;;;;;;6160499;23;20081;-92
2022/09/20 11:41:27;;;;;;;0.88;0.28;;;16.10;99.90;;;;;;6160822;23;20116;-93
2022/09/20 11:43:56;;;;;;;1.13;0.30;;;15.90;99.90;;;;;;6159871;23;20409;-91
2022/09/20 11:46:39;;;;;;;1.33;0.25;;;15.70;99.90;;;;;;6158886;23;20024;-91
2022/09/20 11:53:11;;;;;;;2.30;0.28;;;15.50;99.90;;;;;;6201501;23;20158;-92
2022/09/20 11:56:15;;;;;;;0.88;0.20;;;15.60;99.90;;;;;;6173092;22;20072;-89
2022/09/20 11:59:22;;;;;;;0.93;0.47;;;15.60;99.90;;;;;;6203059;23;20017;-90
2022/09/20 12:02:05;;;;;;;;;;;;;;;;;;;;;
2022/09/20 12:04:40;;;;;;;0.65;0.20;;;16.00;99.90;;;;;;6184795;23;20016;-91
2022/09/20 12:07:36;;;;;;;1.23;0.30;;;16.10;99.90;;;;;;6136723;23;20023;-92
2022/09/20 12:10:25;;;;;;;1.83;0.22;;;16.30;99.90;;;;;;6146869;23;20013;-91
2022/09/20 12:12:58;;;;;;;1.67;0.28;;;16.30;99.90;;;;;;6160453;22;20027;-91
2022/09/20 12:15:28;;;;;;;1.45;0.20;;;16.40;99.90;;;;;;6162054;22;20048;-91
2022/09/20 12:17:57;;;;;;;1.38;0.17;;;16.50;99.90;;;;;;6158873;23;20480;-89
2022/09/20 12:20:33;;;;;;;1.13;0.20;;;16.50;99.90;;;;;;6159702;23;20017;-89
2022/09/20 12:36:55;;;;;;;2.20;0.25;;;16.70;99.90;;;;;;6160525;22;20024;-92
2022/09/20 12:39:38;;;;;;;0.52;0.20;;;16.70;99.60;;;;;;6160131;23;20096;-91
2022/09/20 12:42:10;;;;;;;1.65;0.20;;;16.60;99.70;;;;;;6160323;23;20016;-91
2022/09/20 12:44:44;;;;;;;0.52;0.10;;;16.40;99.40;;;;;;6160447;23;20016;-93
2022/09/20 12:47:10;;;;;;;0.30;0.10;;;16.30;99.60;;;;;;6160475;23;20017;-90
2022/09/20 12:53:22;;;;;;;1.58;0.20;;;16.30;99.10;;;;;;6119779;23;20252;-92
2022/09/20 13:24:49;;;;;;;1.08;0.20;;;16.20;99.90;;;;;;6187970;23;20029;-92
2022/09/20 13:40:32;;;;;;;2.03;0.28;;;16.10;99.90;;;;;;6208671;23;20092;-89
2022/09/20 13:43:00;;;;;;;0.93;0.30;;;16.10;99.30;;;;;;6185257;22;20012;-89
2022/09/20 13:45:27;;;;;;;1.23;0.20;;;16.10;99.20;;;;;;6157065;23;20282;-90
2022/09/20 13:47:56;;;;;;;1.10;0.17;;;16.10;99.20;;;;;;6185642;23;20028;-89
2022/09/20 13:50:25;;;;;;;1.63;0.35;;;15.90;99.00;;;;;;6290560;22;20445;-89
2022/09/20 13:52:57;;;;;;;1.00;0.20;;;15.90;99.30;;;;;;6185486;23;20021;-88
2022/09/20 13:55:33;;;;;;;0.55;0.10;;;15.80;99.20;;;;;;6160893;23;20013;-88
2022/09/20 13:58:16;;;;;;;0.28;0.10;;;15.70;99.00;;;;;;6186507;23;20453;-90
2022/09/20 14:01:05;;;;;;;1.77;0.17;;;15.70;99.10;;;;;;6178509;23;20017;-87
2022/09/20 14:03:33;;;;;;;1.02;0.10;;;15.70;99.10;;;;;;6167090;23;20059;-89
2022/09/20 14:06:10;;;;;;;1.83;0.20;;;15.60;99.20;;;;;;6161644;22;20028;-90
2022/09/20 14:08:47;;;;;;;2.67;0.20;;;15.50;99.20;;;;;;6160862;23;20023;-87
2022/09/20 14:11:15;;;;;;;1.13;0.20;;;15.50;99.30;;;;;;6185488;23;20017;-87
2022/09/20 14:13:45;;;;;;;1.38;0.30;;;15.50;99.40;;;;;;6185986;22;20096;-90
2022/09/20 14:16:11;;;;;;;1.98;0.30;;;15.60;99.50;;;;;;6161243;23;20017;-89
2022/09/20 14:18:40;;;;;;;1.17;0.40;;;15.60;98.80;;;;;;6185907;22;20085;-89
2022/09/20 14:21:10;;;;;;;0.30;0.10;;;15.70;99.00;;;;;;6160702;23;20017;-88
2022/09/20 14:23:54;;;;;;;2.53;0.20;;;15.80;98.60;;;;;;6185174;23;20520;-87
2022/09/20 14:26:35;;;;;;;0.82;0.20;;;15.80;98.90;;;;;;6185208;23;20070;-86
2022/09/20 14:29:32;;;;;;;2.30;0.30;;;15.80;99.30;;;;;;6160819;23;20469;-87
2022/09/20 14:32:05;;;;;;;2.35;0.20;;;15.90;99.50;;;;;;6160623;23;20017;-87
2022/09/20 14:34:34;;;;;;;1.02;0.20;;;15.90;99.50;;;;;;6160938;23;20016;-90
2022/09/20 14:37:18;;;;;;;0.60;0.20;;;15.90;99.90;;;;;;6160844;22;20087;-89
2022/09/20 14:39:51;;;;;;;3.63;0.40;;;15.80;99.90;;;;;;6185369;23;20031;-88
2022/09/20 14:42:28;;;;;;;2.30;0.85;;;15.70;99.90;;;;;;6160662;23;20028;-90
2022/09/20 14:44:54;;;;;;;;;;;15.60;99.90;;;;;;6161297;23;20026;-89
2022/09/20 14:47:38;;;;;;;0.70;0.25;;;15.40;99.90;;;;;;6160548;23;19991;-89
2022/09/20 14:50:26;;;;;;;0.20;0.20;;;15.40;99.90;;;;;;6185395;23;20013;-86
2022/09/20 14:53:10;;;;;;;2.38;0.40;;;15.30;99.90;;;;;;6160523;23;20017;-87
2022/09/20 14:55:43;;;;;;;1.48;0.68;;;15.20;99.90;;;;;;6160580;23;20021;-89
2022/09/20 14:58:12;;;;;;;1.27;0.10;;;15.10;99.90;;;;;;6161183;22;20476;-88
2022/09/20 15:00:57;;;;;;;2.03;0.10;;;15.00;99.90;;;;;;6160488;23;20020;-86
2022/09/20 15:03:36;;;;;;;1.08;0.10;;;15.00;99.90;;;;;;6185257;23;20027;-87
2022/09/20 15:06:38;;;;;;;0.47;0.10;;;14.90;99.90;;;;;;6161321;23;20441;-87
2022/09/20 15:09:25;;;;;;;1.23;0.20;;;14.80;99.90;;;;;;6160255;23;20453;-89
2022/09/20 15:12:04;;;;;;;0.30;0.10;;;14.80;99.90;;;;;;6159992;23;20100;-86
2022/09/20 15:14:30;;;;;;;1.10;0.20;;;14.70;99.90;;;;;;6159896;23;20458;-87
2022/09/20 15:17:01;;;;;;;2.08;0.20;;;14.70;99.90;;;;;;6136026;23;20017;-87
2022/09/20 15:19:42;;;;;;;0.40;0.13;;;14.70;99.90;;;;;;6185124;23;20449;-90
2022/09/20 15:22:09;;;;;;;1.10;0.05;;;14.60;99.90;;;;;;6160630;23;20029;-90
2022/09/20 15:24:35;;;;;;;0.95;0.20;;;14.60;99.90;;;;;;6160750;23;20024;-90
2022/09/20 15:27:00;;;;;;;0.73;0.13;;;14.60;99.90;;;;;;6160434;23;20020;-89
2022/09/20 15:29:26;;;;;;;0.65;0.20;;;14.60;99.90;;;;;;6160447;23;20016;-89
2022/09/20 15:31:55;;;;;;;1.08;0.63;;;14.70;99.90;;;;;;6160670;23;20023;-88